Airfield :
LOGIN :

Register | Disclaimer

   EN    FR    IT 

 










Legend :    VFR   Marginal VFR   IFR   Intensive IFR   Very Intensive IFR
Visi :
Ceiling :
>= 8 km
>= 3000ft
5 to 8 km
1000 to 3000 ft
1500m to 5 km
500 to 1000 ft
800 to 1500m
200 to 500 ft
< 800m
< 200 ft
Symbols :   Thunderstorms  Fog  Heavy snow  Heavy precipitations  Wind > 20 kt
SIGMETs :     Misc.  Thunderstorms  Icing  Turbulence  Mountain Waves  Volcanic Ashes







- Airport Elevation : 17 ft
- IATA code : GRQ


EHGG - Groningen Eelde

CURRENT METAR :
  • 272325Z AUTO 06003KT 010V100 9999 NSC 17/14 Q1018

EXPIRED METARs :
  • 272255Z AUTO 08005KT 060V120 9999 NSC 17/14 Q1018
  • 272225Z AUTO 07006KT 9999 NSC 17/15 Q1018
  • 272155Z AUTO 11005KT 070V140 9999 NSC 18/14 Q1017
  • 272125Z AUTO 13004KT 080V170 9999 -RA FEW018CB 19/14 Q1018
  • 272055Z AUTO VRB02KT 9999 FEW022CB 19/13 Q1018

TAF TAF EHGG
Valid from the 27 at 18:00 until the 29 at 00:00 UTC


271714Z 2718/2824 06008KT CAVOK
PROB30
TEMPO 2718/2722 10010G20KT 4000 SHRA TSRA SCT050CB
PROB30
TEMPO 2814/2821 4000 SHRA TSRA SCT050CB
BECMG 2815/2818 03012KT
No reported NOTAMs for that airfield.



MET'MAP, your aeronautical weather chart ! - Copyright ORBIFLY December 2007 - Disclaimer

ORBIFLY MET'MAP TEAM :

Programming & Development : Alexandra Zaïnal
Concept & Development : Baudouin d'Aumeries
Co-Development & Prog : Marc-Olivier Méhu
Technical & hardware support : Manuel Goepfert

Contact : metmap@orbifly.com




SOURCES & CREDITS :

   NOAA